sensor_id;sensor_type;location;lat;lon;timestamp;temperature;humidity
80540;DHT22;69869;48.036;15.780;2023-07-02T00:01:44;19.80;90.60
80540;DHT22;69869;48.036;15.780;2023-07-02T00:04:10;19.80;90.60
80540;DHT22;69869;48.036;15.780;2023-07-02T00:06:39;19.80;90.60
80540;DHT22;69869;48.036;15.780;2023-07-02T00:09:06;19.80;90.70
80540;DHT22;69869;48.036;15.780;2023-07-02T00:11:32;19.80;90.60
80540;DHT22;69869;48.036;15.780;2023-07-02T00:13:58;19.80;90.60
80540;DHT22;69869;48.036;15.780;2023-07-02T00:16:23;19.80;90.60
80540;DHT22;69869;48.036;15.780;2023-07-02T00:18:49;19.80;90.60
80540;DHT22;69869;48.036;15.780;2023-07-02T00:21:18;19.80;90.60
80540;DHT22;69869;48.036;15.780;2023-07-02T00:23:44;19.80;90.60
80540;DHT22;69869;48.036;15.780;2023-07-02T00:26:10;19.80;90.60
80540;DHT22;69869;48.036;15.780;2023-07-02T00:28:36;19.80;90.60
80540;DHT22;69869;48.036;15.780;2023-07-02T00:31:01;19.80;90.60
80540;DHT22;69869;48.036;15.780;2023-07-02T00:33:27;19.80;90.60
80540;DHT22;69869;48.036;15.780;2023-07-02T00:35:54;19.80;90.60
80540;DHT22;69869;48.036;15.780;2023-07-02T00:38:20;19.80;90.60
80540;DHT22;69869;48.036;15.780;2023-07-02T00:40:46;19.80;90.60
80540;DHT22;69869;48.036;15.780;2023-07-02T00:43:12;19.80;90.60
80540;DHT22;69869;48.036;15.780;2023-07-02T00:45:39;19.80;90.60
80540;DHT22;69869;48.036;15.780;2023-07-02T00:48:06;19.80;90.60
80540;DHT22;69869;48.036;15.780;2023-07-02T00:50:32;19.80;90.60
80540;DHT22;69869;48.036;15.780;2023-07-02T00:52:58;19.80;90.60
80540;DHT22;69869;48.036;15.780;2023-07-02T00:55:24;19.80;90.60
80540;DHT22;69869;48.036;15.780;2023-07-02T00:57:50;19.80;90.60
80540;DHT22;69869;48.036;15.780;2023-07-02T01:00:16;19.80;90.60
80540;DHT22;69869;48.036;15.780;2023-07-02T01:02:42;19.80;90.60
80540;DHT22;69869;48.036;15.780;2023-07-02T01:05:16;19.80;90.60
80540;DHT22;69869;48.036;15.780;2023-07-02T01:07:41;19.80;90.50
80540;DHT22;69869;48.036;15.780;2023-07-02T01:10:08;19.80;90.60
80540;DHT22;69869;48.036;15.780;2023-07-02T01:12:34;19.80;90.50
80540;DHT22;69869;48.036;15.780;2023-07-02T01:15:02;19.80;90.50
80540;DHT22;69869;48.036;15.780;2023-07-02T01:17:30;19.80;90.50
80540;DHT22;69869;48.036;15.780;2023-07-02T01:20:07;19.80;90.60
80540;DHT22;69869;48.036;15.780;2023-07-02T01:22:34;19.80;90.50
80540;DHT22;69869;48.036;15.780;2023-07-02T01:25:00;19.80;90.50
80540;DHT22;69869;48.036;15.780;2023-07-02T01:27:29;19.70;90.50
80540;DHT22;69869;48.036;15.780;2023-07-02T01:29:55;19.80;90.50
80540;DHT22;69869;48.036;15.780;2023-07-02T01:32:21;19.80;90.50
80540;DHT22;69869;48.036;15.780;2023-07-02T01:34:48;19.80;90.50
80540;DHT22;69869;48.036;15.780;2023-07-02T01:37:19;19.80;90.50
80540;DHT22;69869;48.036;15.780;2023-07-02T01:39:45;19.80;90.50
80540;DHT22;69869;48.036;15.780;2023-07-02T01:42:12;19.80;90.50
80540;DHT22;69869;48.036;15.780;2023-07-02T01:44:40;19.70;90.50
80540;DHT22;69869;48.036;15.780;2023-07-02T01:47:05;19.80;90.50
80540;DHT22;69869;48.036;15.780;2023-07-02T01:49:31;19.80;90.50
80540;DHT22;69869;48.036;15.780;2023-07-02T01:51:58;19.80;90.50
80540;DHT22;69869;48.036;15.780;2023-07-02T01:54:25;19.80;90.50
80540;DHT22;69869;48.036;15.780;2023-07-02T01:56:53;19.70;90.40
80540;DHT22;69869;48.036;15.780;2023-07-02T01:59:18;19.80;90.50
80540;DHT22;69869;48.036;15.780;2023-07-02T02:01:44;19.80;90.50
80540;DHT22;69869;48.036;15.780;2023-07-02T02:04:10;19.70;90.40
80540;DHT22;69869;48.036;15.780;2023-07-02T02:06:37;19.80;90.50
80540;DHT22;69869;48.036;15.780;2023-07-02T02:09:04;19.80;90.50
80540;DHT22;69869;48.036;15.780;2023-07-02T02:11:30;19.70;90.40
80540;DHT22;69869;48.036;15.780;2023-07-02T02:13:57;19.80;90.40
80540;DHT22;69869;48.036;15.780;2023-07-02T02:16:23;19.70;90.40
80540;DHT22;69869;48.036;15.780;2023-07-02T02:18:49;19.70;90.40
80540;DHT22;69869;48.036;15.780;2023-07-02T02:21:19;19.80;90.40
80540;DHT22;69869;48.036;15.780;2023-07-02T02:23:44;19.70;90.70
80540;DHT22;69869;48.036;15.780;2023-07-02T02:26:10;19.70;90.40
80540;DHT22;69869;48.036;15.780;2023-07-02T02:28:36;19.70;90.40
80540;DHT22;69869;48.036;15.780;2023-07-02T02:31:02;19.80;90.50
80540;DHT22;69869;48.036;15.780;2023-07-02T02:33:28;19.70;90.40
80540;DHT22;69869;48.036;15.780;2023-07-02T02:35:53;19.70;90.40
80540;DHT22;69869;48.036;15.780;2023-07-02T02:38:19;19.70;90.40
80540;DHT22;69869;48.036;15.780;2023-07-02T02:40:44;19.70;90.30
80540;DHT22;69869;48.036;15.780;2023-07-02T02:43:10;19.70;90.40
80540;DHT22;69869;48.036;15.780;2023-07-02T02:45:36;19.70;90.40
80540;DHT22;69869;48.036;15.780;2023-07-02T02:48:01;19.70;90.40
80540;DHT22;69869;48.036;15.780;2023-07-02T02:50:27;19.70;90.40
80540;DHT22;69869;48.036;15.780;2023-07-02T02:52:53;19.70;90.40
80540;DHT22;69869;48.036;15.780;2023-07-02T02:55:18;19.70;90.40
80540;DHT22;69869;48.036;15.780;2023-07-02T02:57:44;19.70;90.40
80540;DHT22;69869;48.036;15.780;2023-07-02T03:00:11;19.70;90.40
80540;DHT22;69869;48.036;15.780;2023-07-02T03:02:37;19.70;90.40
80540;DHT22;69869;48.036;15.780;2023-07-02T03:05:05;19.70;90.40
80540;DHT22;69869;48.036;15.780;2023-07-02T03:07:32;19.70;90.40
80540;DHT22;69869;48.036;15.780;2023-07-02T03:09:58;19.70;90.40
80540;DHT22;69869;48.036;15.780;2023-07-02T03:12:25;19.70;90.40
80540;DHT22;69869;48.036;15.780;2023-07-02T03:14:51;19.70;90.40
80540;DHT22;69869;48.036;15.780;2023-07-02T03:17:20;19.70;90.40
80540;DHT22;69869;48.036;15.780;2023-07-02T03:19:46;19.70;90.40
80540;DHT22;69869;48.036;15.780;2023-07-02T03:22:12;19.70;90.40
80540;DHT22;69869;48.036;15.780;2023-07-02T03:24:38;19.70;90.40
80540;DHT22;69869;48.036;15.780;2023-07-02T03:27:04;19.70;90.40
80540;DHT22;69869;48.036;15.780;2023-07-02T03:29:29;19.70;90.40
80540;DHT22;69869;48.036;15.780;2023-07-02T03:31:55;19.70;90.40
80540;DHT22;69869;48.036;15.780;2023-07-02T03:34:21;19.70;90.30
80540;DHT22;69869;48.036;15.780;2023-07-02T03:36:48;19.70;90.30
80540;DHT22;69869;48.036;15.780;2023-07-02T03:39:14;19.70;90.30
80540;DHT22;69869;48.036;15.780;2023-07-02T03:41:40;19.70;90.40
80540;DHT22;69869;48.036;15.780;2023-07-02T03:44:05;19.70;90.40
80540;DHT22;69869;48.036;15.780;2023-07-02T03:46:31;19.70;90.40
80540;DHT22;69869;48.036;15.780;2023-07-02T03:48:57;19.70;90.40
80540;DHT22;69869;48.036;15.780;2023-07-02T03:51:23;19.70;90.40
80540;DHT22;69869;48.036;15.780;2023-07-02T03:53:49;19.70;90.40
80540;DHT22;69869;48.036;15.780;2023-07-02T03:56:14;19.70;90.40
80540;DHT22;69869;48.036;15.780;2023-07-02T03:58:40;19.70;90.40
80540;DHT22;69869;48.036;15.780;2023-07-02T04:01:06;19.60;90.70
80540;DHT22;69869;48.036;15.780;2023-07-02T04:03:32;19.70;90.40
80540;DHT22;69869;48.036;15.780;2023-07-02T04:05:57;19.70;90.50
80540;DHT22;69869;48.036;15.780;2023-07-02T04:08:23;19.70;90.40
80540;DHT22;69869;48.036;15.780;2023-07-02T04:10:50;19.70;90.40
80540;DHT22;69869;48.036;15.780;2023-07-02T04:13:16;19.70;90.40
80540;DHT22;69869;48.036;15.780;2023-07-02T04:15:42;19.70;90.40
80540;DHT22;69869;48.036;15.780;2023-07-02T04:18:07;19.70;90.40
80540;DHT22;69869;48.036;15.780;2023-07-02T04:20:33;19.70;90.50
80540;DHT22;69869;48.036;15.780;2023-07-02T04:22:59;19.70;90.50
80540;DHT22;69869;48.036;15.780;2023-07-02T04:25:25;19.70;90.50
80540;DHT22;69869;48.036;15.780;2023-07-02T04:27:50;19.70;90.50
80540;DHT22;69869;48.036;15.780;2023-07-02T04:30:16;19.70;90.50
80540;DHT22;69869;48.036;15.780;2023-07-02T04:32:42;19.70;90.50
80540;DHT22;69869;48.036;15.780;2023-07-02T04:35:08;19.70;90.50
80540;DHT22;69869;48.036;15.780;2023-07-02T04:37:35;19.70;90.50
80540;DHT22;69869;48.036;15.780;2023-07-02T04:40:01;19.70;90.50
80540;DHT22;69869;48.036;15.780;2023-07-02T04:42:29;19.70;90.50
80540;DHT22;69869;48.036;15.780;2023-07-02T04:44:59;19.70;90.60
80540;DHT22;69869;48.036;15.780;2023-07-02T04:47:29;19.70;90.60
80540;DHT22;69869;48.036;15.780;2023-07-02T04:49:54;19.60;90.50
80540;DHT22;69869;48.036;15.780;2023-07-02T04:52:20;19.70;90.60
80540;DHT22;69869;48.036;15.780;2023-07-02T04:54:46;19.70;90.60
80540;DHT22;69869;48.036;15.780;2023-07-02T04:57:11;19.70;90.50
80540;DHT22;69869;48.036;15.780;2023-07-02T04:59:38;19.60;90.60
80540;DHT22;69869;48.036;15.780;2023-07-02T05:02:04;19.70;90.60
80540;DHT22;69869;48.036;15.780;2023-07-02T05:04:30;19.70;90.60
80540;DHT22;69869;48.036;15.780;2023-07-02T05:06:55;19.60;90.60
80540;DHT22;69869;48.036;15.780;2023-07-02T05:09:21;19.70;90.60
80540;DHT22;69869;48.036;15.780;2023-07-02T05:11:46;19.60;90.50
80540;DHT22;69869;48.036;15.780;2023-07-02T05:14:12;19.60;90.60
80540;DHT22;69869;48.036;15.780;2023-07-02T05:16:37;19.60;90.60
80540;DHT22;69869;48.036;15.780;2023-07-02T05:19:03;19.60;90.60
80540;DHT22;69869;48.036;15.780;2023-07-02T05:21:29;19.60;90.60
80540;DHT22;69869;48.036;15.780;2023-07-02T05:23:54;19.60;90.60
80540;DHT22;69869;48.036;15.780;2023-07-02T05:26:20;19.60;90.60
80540;DHT22;69869;48.036;15.780;2023-07-02T05:28:45;19.60;90.60
80540;DHT22;69869;48.036;15.780;2023-07-02T05:31:11;19.60;90.60
80540;DHT22;69869;48.036;15.780;2023-07-02T05:33:38;19.60;90.60
80540;DHT22;69869;48.036;15.780;2023-07-02T05:36:04;19.60;90.70
80540;DHT22;69869;48.036;15.780;2023-07-02T05:38:30;19.60;90.70
80540;DHT22;69869;48.036;15.780;2023-07-02T05:40:55;19.60;90.70
80540;DHT22;69869;48.036;15.780;2023-07-02T05:43:21;19.60;90.70
80540;DHT22;69869;48.036;15.780;2023-07-02T05:45:47;19.60;90.70
80540;DHT22;69869;48.036;15.780;2023-07-02T05:48:12;19.60;90.70
80540;DHT22;69869;48.036;15.780;2023-07-02T05:50:38;19.60;90.70
80540;DHT22;69869;48.036;15.780;2023-07-02T05:53:03;19.60;90.70
80540;DHT22;69869;48.036;15.780;2023-07-02T05:55:29;19.60;90.70
80540;DHT22;69869;48.036;15.780;2023-07-02T05:57:55;19.60;90.70
80540;DHT22;69869;48.036;15.780;2023-07-02T06:00:23;19.60;90.80
80540;DHT22;69869;48.036;15.780;2023-07-02T06:02:48;19.60;90.70
80540;DHT22;69869;48.036;15.780;2023-07-02T06:05:14;19.60;91.10
80540;DHT22;69869;48.036;15.780;2023-07-02T06:07:39;19.60;90.70
80540;DHT22;69869;48.036;15.780;2023-07-02T06:10:05;19.60;90.70
80540;DHT22;69869;48.036;15.780;2023-07-02T06:12:31;19.60;90.70
80540;DHT22;69869;48.036;15.780;2023-07-02T06:14:57;19.60;90.80
80540;DHT22;69869;48.036;15.780;2023-07-02T06:17:22;19.60;90.80
80540;DHT22;69869;48.036;15.780;2023-07-02T06:19:50;19.60;90.80
80540;DHT22;69869;48.036;15.780;2023-07-02T06:22:15;19.60;90.80
80540;DHT22;69869;48.036;15.780;2023-07-02T06:24:41;19.60;90.70
80540;DHT22;69869;48.036;15.780;2023-07-02T06:27:07;19.60;90.80
80540;DHT22;69869;48.036;15.780;2023-07-02T06:29:32;19.60;90.80
80540;DHT22;69869;48.036;15.780;2023-07-02T06:31:58;19.60;90.80
80540;DHT22;69869;48.036;15.780;2023-07-02T06:34:23;19.60;90.80
80540;DHT22;69869;48.036;15.780;2023-07-02T06:36:49;19.60;90.80
80540;DHT22;69869;48.036;15.780;2023-07-02T06:39:15;19.60;90.80
80540;DHT22;69869;48.036;15.780;2023-07-02T06:41:40;19.60;90.90
80540;DHT22;69869;48.036;15.780;2023-07-02T06:44:06;19.60;90.90
80540;DHT22;69869;48.036;15.780;2023-07-02T06:46:32;19.60;90.80
80540;DHT22;69869;48.036;15.780;2023-07-02T06:48:58;19.60;90.90
80540;DHT22;69869;48.036;15.780;2023-07-02T06:51:23;19.60;90.90
80540;DHT22;69869;48.036;15.780;2023-07-02T06:53:51;19.60;90.90
80540;DHT22;69869;48.036;15.780;2023-07-02T06:56:17;19.60;90.90
80540;DHT22;69869;48.036;15.780;2023-07-02T06:58:43;19.60;90.90
80540;DHT22;69869;48.036;15.780;2023-07-02T07:01:09;19.60;90.90
80540;DHT22;69869;48.036;15.780;2023-07-02T07:03:35;19.60;90.90
80540;DHT22;69869;48.036;15.780;2023-07-02T07:06:01;19.60;90.90
80540;DHT22;69869;48.036;15.780;2023-07-02T07:08:26;19.60;90.90
80540;DHT22;69869;48.036;15.780;2023-07-02T07:10:52;19.60;90.90
80540;DHT22;69869;48.036;15.780;2023-07-02T07:13:18;19.60;90.90
80540;DHT22;69869;48.036;15.780;2023-07-02T07:15:43;19.60;90.90
80540;DHT22;69869;48.036;15.780;2023-07-02T07:18:09;19.60;90.90
80540;DHT22;69869;48.036;15.780;2023-07-02T07:20:35;19.60;90.90
80540;DHT22;69869;48.036;15.780;2023-07-02T07:23:02;19.60;90.90
80540;DHT22;69869;48.036;15.780;2023-07-02T07:25:28;19.60;90.90
80540;DHT22;69869;48.036;15.780;2023-07-02T07:27:53;19.60;90.90
80540;DHT22;69869;48.036;15.780;2023-07-02T07:30:20;19.60;90.90
80540;DHT22;69869;48.036;15.780;2023-07-02T07:32:50;19.60;90.90
80540;DHT22;69869;48.036;15.780;2023-07-02T07:35:15;19.60;90.90
80540;DHT22;69869;48.036;15.780;2023-07-02T07:37:41;19.60;90.90
80540;DHT22;69869;48.036;15.780;2023-07-02T07:40:07;19.60;91.00
80540;DHT22;69869;48.036;15.780;2023-07-02T07:42:33;19.60;91.00
80540;DHT22;69869;48.036;15.780;2023-07-02T07:44:58;19.60;91.00
80540;DHT22;69869;48.036;15.780;2023-07-02T07:47:24;19.60;91.00
80540;DHT22;69869;48.036;15.780;2023-07-02T07:49:50;19.60;90.90
80540;DHT22;69869;48.036;15.780;2023-07-02T07:52:16;19.60;90.90
80540;DHT22;69869;48.036;15.780;2023-07-02T07:54:41;19.60;90.90
80540;DHT22;69869;48.036;15.780;2023-07-02T07:57:07;19.60;91.00
80540;DHT22;69869;48.036;15.780;2023-07-02T07:59:33;19.60;90.90
80540;DHT22;69869;48.036;15.780;2023-07-02T08:01:58;19.60;90.90
80540;DHT22;69869;48.036;15.780;2023-07-02T08:04:24;19.60;91.00
80540;DHT22;69869;48.036;15.780;2023-07-02T08:06:49;19.60;91.00
80540;DHT22;69869;48.036;15.780;2023-07-02T08:09:15;19.60;91.00
80540;DHT22;69869;48.036;15.780;2023-07-02T08:11:41;19.60;91.00
80540;DHT22;69869;48.036;15.780;2023-07-02T08:14:06;19.60;91.00
80540;DHT22;69869;48.036;15.780;2023-07-02T08:16:32;19.60;91.00
80540;DHT22;69869;48.036;15.780;2023-07-02T08:18:57;19.60;91.00
80540;DHT22;69869;48.036;15.780;2023-07-02T08:21:23;19.60;91.00
80540;DHT22;69869;48.036;15.780;2023-07-02T08:23:49;19.60;91.00
80540;DHT22;69869;48.036;15.780;2023-07-02T08:26:14;19.60;91.10
80540;DHT22;69869;48.036;15.780;2023-07-02T08:28:40;19.60;91.10
80540;DHT22;69869;48.036;15.780;2023-07-02T08:31:06;19.60;91.10
80540;DHT22;69869;48.036;15.780;2023-07-02T08:33:31;19.60;91.00
80540;DHT22;69869;48.036;15.780;2023-07-02T08:35:57;19.60;91.00
80540;DHT22;69869;48.036;15.780;2023-07-02T08:38:23;19.60;91.10
80540;DHT22;69869;48.036;15.780;2023-07-02T08:40:49;19.60;91.00
80540;DHT22;69869;48.036;15.780;2023-07-02T08:43:15;19.60;91.00
80540;DHT22;69869;48.036;15.780;2023-07-02T08:45:44;19.60;91.00
80540;DHT22;69869;48.036;15.780;2023-07-02T08:48:11;19.60;91.00
80540;DHT22;69869;48.036;15.780;2023-07-02T08:50:37;19.60;91.10
80540;DHT22;69869;48.036;15.780;2023-07-02T08:53:02;19.60;91.00
80540;DHT22;69869;48.036;15.780;2023-07-02T08:55:28;19.60;91.10
80540;DHT22;69869;48.036;15.780;2023-07-02T08:57:57;19.60;91.10
80540;DHT22;69869;48.036;15.780;2023-07-02T09:00:26;19.60;91.10
80540;DHT22;69869;48.036;15.780;2023-07-02T09:02:52;19.60;91.10
80540;DHT22;69869;48.036;15.780;2023-07-02T09:05:17;19.60;91.10
80540;DHT22;69869;48.036;15.780;2023-07-02T09:07:47;19.60;91.10
80540;DHT22;69869;48.036;15.780;2023-07-02T09:10:33;19.60;91.40
80540;DHT22;69869;48.036;15.780;2023-07-02T09:13:03;19.60;91.10
80540;DHT22;69869;48.036;15.780;2023-07-02T09:15:38;19.50;91.00
80540;DHT22;69869;48.036;15.780;2023-07-02T09:18:24;19.50;91.00
80540;DHT22;69869;48.036;15.780;2023-07-02T09:20:56;19.60;91.10
80540;DHT22;69869;48.036;15.780;2023-07-02T09:23:22;19.60;91.10
80540;DHT22;69869;48.036;15.780;2023-07-02T09:25:47;19.60;91.10
80540;DHT22;69869;48.036;15.780;2023-07-02T09:28:21;19.60;91.10
80540;DHT22;69869;48.036;15.780;2023-07-02T09:30:58;19.60;91.10
80540;DHT22;69869;48.036;15.780;2023-07-02T09:33:24;19.60;91.10
80540;DHT22;69869;48.036;15.780;2023-07-02T09:35:51;19.50;91.00
80540;DHT22;69869;48.036;15.780;2023-07-02T09:38:21;19.50;91.00
80540;DHT22;69869;48.036;15.780;2023-07-02T09:40:49;19.60;91.10
80540;DHT22;69869;48.036;15.780;2023-07-02T09:43:16;19.50;91.00
80540;DHT22;69869;48.036;15.780;2023-07-02T09:45:43;19.60;91.10
80540;DHT22;69869;48.036;15.780;2023-07-02T09:48:15;19.50;91.10
80540;DHT22;69869;48.036;15.780;2023-07-02T09:50:43;19.60;91.10
80540;DHT22;69869;48.036;15.780;2023-07-02T09:53:10;19.60;91.10
80540;DHT22;69869;48.036;15.780;2023-07-02T09:55:36;19.60;91.00
80540;DHT22;69869;48.036;15.780;2023-07-02T09:58:03;19.60;91.10
80540;DHT22;69869;48.036;15.780;2023-07-02T10:00:28;19.60;91.00
80540;DHT22;69869;48.036;15.780;2023-07-02T10:02:54;19.50;91.00
80540;DHT22;69869;48.036;15.780;2023-07-02T10:05:31;19.50;91.10
80540;DHT22;69869;48.036;15.780;2023-07-02T10:07:58;19.50;91.00
80540;DHT22;69869;48.036;15.780;2023-07-02T10:10:31;19.50;91.00
80540;DHT22;69869;48.036;15.780;2023-07-02T10:12:57;19.50;91.00
80540;DHT22;69869;48.036;15.780;2023-07-02T10:15:30;19.50;91.00
80540;DHT22;69869;48.036;15.780;2023-07-02T10:18:02;19.60;91.10
80540;DHT22;69869;48.036;15.780;2023-07-02T10:20:37;19.50;91.00
80540;DHT22;69869;48.036;15.780;2023-07-02T10:23:04;19.50;91.10
80540;DHT22;69869;48.036;15.780;2023-07-02T10:25:35;19.50;91.20
80540;DHT22;69869;48.036;15.780;2023-07-02T10:28:17;19.50;91.00
80540;DHT22;69869;48.036;15.780;2023-07-02T10:30:43;19.50;91.00
80540;DHT22;69869;48.036;15.780;2023-07-02T10:33:16;19.50;91.00
80540;DHT22;69869;48.036;15.780;2023-07-02T10:35:46;19.50;91.00
80540;DHT22;69869;48.036;15.780;2023-07-02T10:40:45;19.50;91.00
80540;DHT22;69869;48.036;15.780;2023-07-02T10:43:11;19.50;91.00
80540;DHT22;69869;48.036;15.780;2023-07-02T10:45:36;19.50;91.00
80540;DHT22;69869;48.036;15.780;2023-07-02T10:48:09;19.50;91.10
80540;DHT22;69869;48.036;15.780;2023-07-02T10:50:34;19.50;91.00
80540;DHT22;69869;48.036;15.780;2023-07-02T10:53:00;19.50;90.90
80540;DHT22;69869;48.036;15.780;2023-07-02T10:55:27;19.60;91.00
80540;DHT22;69869;48.036;15.780;2023-07-02T10:58:07;19.50;91.00
80540;DHT22;69869;48.036;15.780;2023-07-02T11:00:49;19.50;91.00
80540;DHT22;69869;48.036;15.780;2023-07-02T11:05:48;19.50;91.00
80540;DHT22;69869;48.036;15.780;2023-07-02T11:08:14;19.50;91.30
80540;DHT22;69869;48.036;15.780;2023-07-02T11:10:40;19.60;90.90
80540;DHT22;69869;48.036;15.780;2023-07-02T11:13:16;19.50;91.00
80540;DHT22;69869;48.036;15.780;2023-07-02T11:15:43;19.50;91.10
80540;DHT22;69869;48.036;15.780;2023-07-02T11:18:13;19.50;91.00
80540;DHT22;69869;48.036;15.780;2023-07-02T11:20:39;19.50;91.10
80540;DHT22;69869;48.036;15.780;2023-07-02T11:23:20;19.50;91.00
80540;DHT22;69869;48.036;15.780;2023-07-02T11:25:57;19.50;91.10
80540;DHT22;69869;48.036;15.780;2023-07-02T11:28:23;19.50;91.10
80540;DHT22;69869;48.036;15.780;2023-07-02T11:30:48;19.60;91.10
80540;DHT22;69869;48.036;15.780;2023-07-02T11:33:14;19.50;91.00
80540;DHT22;69869;48.036;15.780;2023-07-02T11:35:39;19.50;91.00
80540;DHT22;69869;48.036;15.780;2023-07-02T11:38:06;19.50;91.00
80540;DHT22;69869;48.036;15.780;2023-07-02T11:40:32;19.50;91.00
80540;DHT22;69869;48.036;15.780;2023-07-02T11:42:57;19.50;91.00
80540;DHT22;69869;48.036;15.780;2023-07-02T11:45:23;19.50;91.00
80540;DHT22;69869;48.036;15.780;2023-07-02T11:47:49;19.50;91.00
80540;DHT22;69869;48.036;15.780;2023-07-02T11:50:14;19.50;91.00
80540;DHT22;69869;48.036;15.780;2023-07-02T11:52:40;19.50;91.00
80540;DHT22;69869;48.036;15.780;2023-07-02T11:55:06;19.50;91.00
80540;DHT22;69869;48.036;15.780;2023-07-02T11:57:31;19.50;90.90
80540;DHT22;69869;48.036;15.780;2023-07-02T11:59:57;19.50;91.00
80540;DHT22;69869;48.036;15.780;2023-07-02T12:02:23;19.50;91.00
80540;DHT22;69869;48.036;15.780;2023-07-02T12:04:49;19.50;91.00
80540;DHT22;69869;48.036;15.780;2023-07-02T12:07:14;19.50;91.00
80540;DHT22;69869;48.036;15.780;2023-07-02T12:09:40;19.60;91.00
80540;DHT22;69869;48.036;15.780;2023-07-02T12:12:06;19.50;90.80
80540;DHT22;69869;48.036;15.780;2023-07-02T12:14:32;19.50;91.00
80540;DHT22;69869;48.036;15.780;2023-07-02T12:16:58;19.50;91.30
80540;DHT22;69869;48.036;15.780;2023-07-02T12:19:23;19.50;91.00
80540;DHT22;69869;48.036;15.780;2023-07-02T12:21:49;19.60;91.10
80540;DHT22;69869;48.036;15.780;2023-07-02T12:24:14;19.50;91.00
80540;DHT22;69869;48.036;15.780;2023-07-02T12:26:41;19.50;91.00
80540;DHT22;69869;48.036;15.780;2023-07-02T12:29:07;19.50;91.00
80540;DHT22;69869;48.036;15.780;2023-07-02T12:31:33;19.50;91.00
80540;DHT22;69869;48.036;15.780;2023-07-02T12:33:58;19.50;91.00
80540;DHT22;69869;48.036;15.780;2023-07-02T12:36:24;19.50;91.00
80540;DHT22;69869;48.036;15.780;2023-07-02T12:38:50;19.50;91.10
80540;DHT22;69869;48.036;15.780;2023-07-02T12:41:15;19.50;91.10
80540;DHT22;69869;48.036;15.780;2023-07-02T12:43:41;19.50;91.10
80540;DHT22;69869;48.036;15.780;2023-07-02T12:46:07;19.50;91.10
80540;DHT22;69869;48.036;15.780;2023-07-02T12:48:32;19.50;91.10
80540;DHT22;69869;48.036;15.780;2023-07-02T12:50:59;19.50;91.10
80540;DHT22;69869;48.036;15.780;2023-07-02T12:53:26;19.50;91.00
80540;DHT22;69869;48.036;15.780;2023-07-02T12:55:52;19.50;91.10
80540;DHT22;69869;48.036;15.780;2023-07-02T12:58:17;19.50;91.00
80540;DHT22;69869;48.036;15.780;2023-07-02T13:00:43;19.50;91.00
80540;DHT22;69869;48.036;15.780;2023-07-02T13:03:11;19.50;91.10
80540;DHT22;69869;48.036;15.780;2023-07-02T13:05:37;19.50;91.00
80540;DHT22;69869;48.036;15.780;2023-07-02T13:08:03;19.50;91.00
80540;DHT22;69869;48.036;15.780;2023-07-02T13:10:32;19.50;91.00
80540;DHT22;69869;48.036;15.780;2023-07-02T13:12:58;19.50;91.10
80540;DHT22;69869;48.036;15.780;2023-07-02T13:15:24;19.50;91.10
80540;DHT22;69869;48.036;15.780;2023-07-02T13:17:50;19.50;91.10
80540;DHT22;69869;48.036;15.780;2023-07-02T13:20:16;19.50;91.10
80540;DHT22;69869;48.036;15.780;2023-07-02T13:22:42;19.50;91.10
80540;DHT22;69869;48.036;15.780;2023-07-02T13:25:07;19.50;91.10
80540;DHT22;69869;48.036;15.780;2023-07-02T13:27:33;19.50;91.10
80540;DHT22;69869;48.036;15.780;2023-07-02T13:29:59;19.50;91.00
80540;DHT22;69869;48.036;15.780;2023-07-02T13:32:25;19.50;91.10
80540;DHT22;69869;48.036;15.780;2023-07-02T13:34:50;19.50;91.00
80540;DHT22;69869;48.036;15.780;2023-07-02T13:37:16;19.50;91.10
80540;DHT22;69869;48.036;15.780;2023-07-02T13:39:48;19.50;91.10
80540;DHT22;69869;48.036;15.780;2023-07-02T13:42:15;19.50;91.10
80540;DHT22;69869;48.036;15.780;2023-07-02T13:44:40;19.50;91.00
80540;DHT22;69869;48.036;15.780;2023-07-02T13:47:06;19.50;91.10
80540;DHT22;69869;48.036;15.780;2023-07-02T13:49:32;19.50;91.10
80540;DHT22;69869;48.036;15.780;2023-07-02T13:51:58;19.50;91.10
80540;DHT22;69869;48.036;15.780;2023-07-02T13:54:24;19.50;91.10
80540;DHT22;69869;48.036;15.780;2023-07-02T13:56:51;19.50;91.10
80540;DHT22;69869;48.036;15.780;2023-07-02T13:59:17;19.50;91.10
80540;DHT22;69869;48.036;15.780;2023-07-02T14:01:44;19.50;91.10
80540;DHT22;69869;48.036;15.780;2023-07-02T14:04:10;19.50;91.10
80540;DHT22;69869;48.036;15.780;2023-07-02T14:06:37;19.50;91.10
80540;DHT22;69869;48.036;15.780;2023-07-02T14:09:03;19.50;91.10
80540;DHT22;69869;48.036;15.780;2023-07-02T14:11:29;19.50;91.10
80540;DHT22;69869;48.036;15.780;2023-07-02T14:13:55;19.50;91.10
80540;DHT22;69869;48.036;15.780;2023-07-02T14:16:21;19.50;91.40
80540;DHT22;69869;48.036;15.780;2023-07-02T14:18:47;19.50;91.10
80540;DHT22;69869;48.036;15.780;2023-07-02T14:21:13;19.50;91.10
80540;DHT22;69869;48.036;15.780;2023-07-02T14:23:39;19.50;91.10
80540;DHT22;69869;48.036;15.780;2023-07-02T14:26:05;19.50;91.20
80540;DHT22;69869;48.036;15.780;2023-07-02T14:28:31;19.50;91.20
80540;DHT22;69869;48.036;15.780;2023-07-02T14:31:00;19.50;91.10
80540;DHT22;69869;48.036;15.780;2023-07-02T14:33:28;19.50;91.10
80540;DHT22;69869;48.036;15.780;2023-07-02T14:35:54;19.50;91.20
80540;DHT22;69869;48.036;15.780;2023-07-02T14:38:20;19.50;91.20
80540;DHT22;69869;48.036;15.780;2023-07-02T14:40:47;19.50;91.20
80540;DHT22;69869;48.036;15.780;2023-07-02T14:43:13;19.50;91.20
80540;DHT22;69869;48.036;15.780;2023-07-02T14:45:50;19.50;91.20
80540;DHT22;69869;48.036;15.780;2023-07-02T14:48:16;19.50;91.20
80540;DHT22;69869;48.036;15.780;2023-07-02T14:50:49;19.50;91.20
80540;DHT22;69869;48.036;15.780;2023-07-02T14:53:16;19.50;91.20
80540;DHT22;69869;48.036;15.780;2023-07-02T14:55:41;19.50;91.20
80540;DHT22;69869;48.036;15.780;2023-07-02T14:58:07;19.50;91.20
80540;DHT22;69869;48.036;15.780;2023-07-02T15:00:33;19.50;91.00
80540;DHT22;69869;48.036;15.780;2023-07-02T15:02:59;19.50;90.80
80540;DHT22;69869;48.036;15.780;2023-07-02T15:05:25;19.50;90.90
80540;DHT22;69869;48.036;15.780;2023-07-02T15:07:50;19.50;91.00
80540;DHT22;69869;48.036;15.780;2023-07-02T15:10:17;19.50;90.90
80540;DHT22;69869;48.036;15.780;2023-07-02T15:12:43;19.50;91.10
80540;DHT22;69869;48.036;15.780;2023-07-02T15:15:08;19.50;90.90
80540;DHT22;69869;48.036;15.780;2023-07-02T15:17:34;19.50;91.00